Time;durP1;ratioP1;P1;durP2;ratioP2;P2;SDS_P1;SDS_P2;PMS_P1;PMS_P2;Temp;Humidity;BMP_temperature;BMP_pressure;BME280_temperature;BME280_humidity;BME280_pressure;Samples;Min_cycle;Max_cycle;Signal;HPM_P1;HPM_P2
2022/06/06 00:00:45;;;;;;;10.13;7.60;;;;;;;17.24;100.00;98194.13;2606519;28;20060;-87
2022/06/06 00:02:01;;;;;;;12.07;7.28;;;;;;;17.29;100.00;98202.63;2606237;28;20049;-86
2022/06/06 00:03:18;;;;;;;11.48;7.53;;;;;;;17.28;100.00;98195.63;2606353;28;20048;-86
2022/06/06 00:04:35;;;;;;;9.77;7.88;;;;;;;17.32;100.00;98201.59;2606330;28;20052;-86
2022/06/06 00:05:51;;;;;;;13.73;8.10;;;;;;;17.35;100.00;98201.41;2606233;28;20067;-86
2022/06/06 00:07:07;;;;;;;10.35;7.40;;;;;;;17.29;100.00;98202.63;2606397;28;20049;-86
2022/06/06 00:08:22;;;;;;;8.43;7.53;;;;;;;17.29;100.00;98213.19;2606304;28;20408;-86
2022/06/06 00:09:38;;;;;;;10.85;8.02;;;;;;;17.31;100.00;98205.19;2606344;28;20083;-86
2022/06/06 00:10:56;;;;;;;9.52;7.65;;;;;;;17.20;100.00;98209.31;2605967;28;20511;-86
2022/06/06 00:12:12;;;;;;;9.75;7.70;;;;;;;17.12;100.00;98205.41;2605879;28;20048;-87
2022/06/06 00:13:27;;;;;;;12.02;7.40;;;;;;;17.05;100.00;98204.91;2606115;28;20068;-85
2022/06/06 00:14:44;;;;;;;8.82;7.22;;;;;;;16.99;100.00;98202.63;2605315;28;20496;-85
2022/06/06 00:16:00;;;;;;;11.95;7.35;;;;;;;16.94;100.00;98202.88;2605651;28;20110;-85
2022/06/06 00:17:15;;;;;;;11.98;7.82;;;;;;;16.91;100.00;98203.06;2606333;28;20053;-86
2022/06/06 00:18:32;;;;;;;8.25;7.30;;;;;;;16.90;100.00;98188.97;2606092;28;20057;-85
2022/06/06 00:19:47;;;;;;;10.23;6.55;;;;;;;16.83;100.00;98195.53;2606317;28;20076;-87
2022/06/06 00:21:05;;;;;;;8.60;6.68;;;;;;;16.98;100.00;98187.69;2606216;28;20064;-86
2022/06/06 00:22:20;;;;;;;11.15;7.32;;;;;;;16.91;100.00;98181.91;2605956;28;20575;-85
2022/06/06 00:23:37;;;;;;;10.13;6.72;;;;;;;16.92;100.00;98187.09;2606364;28;20048;-85
2022/06/06 00:24:52;;;;;;;8.57;6.55;;;;;;;16.85;100.00;98179.59;2606322;28;20119;-87
2022/06/06 00:26:12;;;;;;;11.90;7.60;;;;;;;16.84;100.00;98169.97;2606190;28;20079;-89
2022/06/06 00:27:27;;;;;;;11.45;7.25;;;;;;;16.90;100.00;98165.19;2605737;28;20415;-87
2022/06/06 00:28:44;;;;;;;9.05;6.90;;;;;;;16.82;100.00;98169.22;2606276;28;20060;-86
2022/06/06 00:30:00;;;;;;;10.35;7.40;;;;;;;16.85;100.00;98158.44;2606296;28;20048;-86
2022/06/06 00:35:59;;;;;;;9.30;6.75;;;;;;;16.77;100.00;98156.25;2606308;28;20045;-89
2022/06/06 00:37:27;;;;;;;8.98;5.72;;;;;;;16.79;100.00;98163.16;2605949;28;20049;-86
2022/06/06 00:38:43;;;;;;;8.32;6.70;;;;;;;16.81;100.00;98160.41;2606294;28;20045;-85
2022/06/06 00:40:01;;;;;;;9.13;6.25;;;;;;;16.85;100.00;98166.38;2606224;28;20619;-85
2022/06/06 00:41:16;;;;;;;7.22;5.28;;;;;;;16.82;100.00;98156.81;2605822;28;20040;-86
2022/06/06 00:42:42;;;;;;;10.23;5.97;;;;;;;16.89;100.00;98163.47;2606462;28;20088;-86
2022/06/06 00:44:08;;;;;;;5.70;5.10;;;;;;;16.90;100.00;98162.53;2605458;28;20862;-88
2022/06/06 00:45:36;;;;;;;6.22;5.00;;;;;;;16.92;100.00;98163.28;2605996;28;20051;-87
2022/06/06 00:47:05;;;;;;;6.75;5.60;;;;;;;16.93;100.00;98162.34;2606099;28;20462;-86
2022/06/06 00:48:31;;;;;;;9.48;5.47;;;;;;;16.79;100.00;98171.09;2605996;28;20575;-86
2022/06/06 00:49:54;;;;;;;6.20;4.80;;;;;;;16.91;100.00;98166.88;2605909;28;20487;-86
2022/06/06 00:51:13;;;;;;;7.72;4.50;;;;;;;16.89;100.00;98167.91;2606034;28;20048;-86
2022/06/06 00:52:34;;;;;;;8.15;4.60;;;;;;;16.88;100.00;98166.19;2606107;28;20064;-86
2022/06/06 00:53:55;;;;;;;8.20;5.20;;;;;;;16.79;100.00;98165.81;2606086;28;20073;-87
2022/06/06 00:55:17;;;;;;;7.65;4.90;;;;;;;16.86;100.00;98168.09;2606051;28;20053;-86
2022/06/06 00:56:39;;;;;;;5.55;4.70;;;;;;;16.85;100.00;98167.25;2606032;28;20049;-86
2022/06/06 00:58:07;;;;;;;7.63;4.85;;;;;;;16.75;100.00;98166.91;2606062;28;20075;-86
2022/06/06 00:59:27;;;;;;;6.22;4.13;;;;;;;16.70;100.00;98170.78;2606018;28;20104;-86
2022/06/06 01:00:43;;;;;;;7.93;4.90;;;;;;;16.82;100.00;98171.84;2606491;28;20950;-86
2022/06/06 01:02:00;;;;;;;5.32;4.45;;;;;;;16.85;100.00;98171.66;2605892;28;20487;-90
2022/06/06 01:03:20;;;;;;;9.05;4.72;;;;;;;16.73;100.00;98176.72;2606237;28;20154;-86
2022/06/06 01:04:36;;;;;;;6.90;5.15;;;;;;;16.78;100.00;98172.03;2606144;28;20053;-86
2022/06/06 01:05:53;;;;;;;5.90;4.45;;;;;;;16.75;100.00;98179.28;2606001;28;20722;-88
2022/06/06 01:07:11;;;;;;;6.75;4.70;;;;;;;16.66;100.00;98178.88;2605844;28;20482;-86
2022/06/06 01:08:27;;;;;;;6.75;4.50;;;;;;;16.73;100.00;98179.38;2607622;28;20049;-86
2022/06/06 01:09:43;;;;;;;10.30;5.13;;;;;;;16.80;100.00;98186.03;2608128;28;20491;-86
2022/06/06 01:10:59;;;;;;;8.35;4.95;;;;;;;16.77;100.00;98183.56;2607602;28;20052;-89
2022/06/06 01:12:19;;;;;;;7.30;5.20;;;;;;;16.93;100.00;98180.03;2608148;28;20072;-89
2022/06/06 01:13:38;;;;;;;9.10;4.80;;;;;;;16.91;100.00;98188.03;2608008;28;20041;-86
2022/06/06 01:15:01;;;;;;;8.32;4.63;;;;;;;16.94;100.00;98194.94;2607884;28;20049;-89
2022/06/06 01:16:32;;;;;;;5.75;5.00;;;;;;;16.90;100.00;98191.63;2607739;28;20055;-86
2022/06/06 01:18:26;;;;;;;9.25;4.47;;;;;;;16.85;100.00;98192.81;2608131;28;20044;-88
2022/06/06 01:20:10;;;;;;;8.45;5.13;;;;;;;16.82;100.00;98193.00;2607830;28;20072;-87
2022/06/06 01:22:12;;;;;;;5.95;4.40;;;;;;;16.78;100.00;98198.47;2608057;28;20492;-86
2022/06/06 01:23:54;;;;;;;7.53;5.00;;;;;;;16.79;100.00;98191.38;2608094;28;20068;-86
2022/06/06 01:25:51;;;;;;;6.05;4.57;;;;;;;16.76;100.00;98200.38;2607834;28;20111;-86
2022/06/06 01:27:22;;;;;;;5.57;4.30;;;;;;;16.86;100.00;98194.53;2606902;28;20091;-86
2022/06/06 01:29:10;;;;;;;5.93;4.70;;;;;;;16.71;100.00;98191.00;2607787;28;20148;-86
2022/06/06 01:30:31;;;;;;;7.15;4.70;;;;;;;16.76;100.00;98191.56;2607810;28;20055;-85
2022/06/06 01:31:59;;;;;;;5.85;4.95;;;;;;;16.67;100.00;98196.44;2607930;28;20052;-86
2022/06/06 01:33:15;;;;;;;9.88;4.57;;;;;;;16.76;100.00;98194.22;2607863;28;20080;-85
2022/06/06 01:34:33;;;;;;;6.95;4.88;;;;;;;16.70;100.00;98199.88;2607782;28;20479;-86
2022/06/06 01:35:50;;;;;;;6.68;4.57;;;;;;;16.72;100.00;98190.88;2607630;28;20052;-85
2022/06/06 01:37:28;;;;;;;5.63;4.47;;;;;;;16.63;100.00;98186.97;2607678;28;20053;-87
2022/06/06 01:38:44;;;;;;;7.18;4.47;;;;;;;16.63;100.00;98194.06;2608029;28;20080;-86
2022/06/06 01:40:03;;;;;;;7.72;4.90;;;;;;;16.66;100.00;98196.53;2607969;28;20049;-85
2022/06/06 01:41:25;;;;;;;6.05;4.93;;;;;;;16.65;100.00;98192.19;2607398;28;20559;-88
2022/06/06 01:43:05;;;;;;;7.90;5.20;;;;;;;16.70;100.00;98200.69;2607608;28;20523;-90
2022/06/06 01:44:33;;;;;;;7.57;4.53;;;;;;;16.70;100.00;98203.34;2607733;28;20073;-85
2022/06/06 01:46:08;;;;;;;5.97;4.30;;;;;;;16.76;100.00;98205.66;2607667;28;20048;-86
2022/06/06 01:47:29;;;;;;;5.90;4.80;;;;;;;16.85;100.00;98203.41;2607873;28;20462;-85
2022/06/06 01:48:48;;;;;;;9.02;5.63;;;;;;;16.87;100.00;98207.66;2607788;28;20049;-86
2022/06/06 01:50:06;;;;;;;7.15;5.07;;;;;;;16.86;100.00;98215.69;2607770;28;20056;-85
2022/06/06 01:51:28;;;;;;;6.45;5.20;;;;;;;16.86;100.00;98223.63;2607635;28;20570;-86
2022/06/06 01:52:51;;;;;;;;;;;;;;;16.84;100.00;98215.78;2608421;28;20053;-85
2022/06/06 01:54:08;;;;;;;7.18;5.07;;;;;;;16.85;100.00;98216.63;2607884;28;20442;-86
2022/06/06 01:55:27;;;;;;;7.68;5.35;;;;;;;16.85;100.00;98229.84;2607816;28;20419;-87
2022/06/06 01:56:42;;;;;;;6.50;4.93;;;;;;;16.86;100.00;98228.91;2608157;28;20433;-85
2022/06/06 01:58:01;;;;;;;8.75;4.82;;;;;;;16.87;100.00;98235.88;2605451;28;20048;-86
2022/06/06 01:59:17;;;;;;;6.25;5.15;;;;;;;16.90;100.00;98244.50;2607555;28;20083;-85
2022/06/06 02:00:35;;;;;;;6.45;4.82;;;;;;;16.89;100.00;98245.44;2607558;28;20076;-85
2022/06/06 02:01:52;;;;;;;9.02;4.57;;;;;;;16.91;100.00;98242.72;2607120;28;20052;-86
2022/06/06 02:03:08;;;;;;;6.97;4.93;;;;;;;16.90;100.00;98236.56;2607544;28;20515;-86
2022/06/06 02:04:23;;;;;;;6.22;4.55;;;;;;;16.90;100.00;98238.34;2607187;28;20545;-86
2022/06/06 02:05:39;;;;;;;9.63;4.53;;;;;;;16.91;100.00;98240.09;2607600;28;20136;-86
2022/06/06 02:06:55;;;;;;;7.18;5.03;;;;;;;16.87;100.00;98242.03;2606247;28;20079;-85
2022/06/06 02:08:11;;;;;;;8.20;4.65;;;;;;;16.83;100.00;98237.84;2606777;28;20511;-86
2022/06/06 02:09:31;;;;;;;7.55;4.45;;;;;;;16.80;100.00;98243.31;2607304;28;20053;-86
2022/06/06 02:10:47;;;;;;;7.70;4.70;;;;;;;16.77;100.00;98239.06;2607455;28;20625;-86
2022/06/06 02:12:04;;;;;;;7.13;4.90;;;;;;;16.75;100.00;98250.66;2607662;28;20419;-86
2022/06/06 02:13:19;;;;;;;7.82;4.93;;;;;;;16.75;100.00;98246.22;2607760;28;20549;-89
2022/06/06 02:14:35;;;;;;;8.27;4.75;;;;;;;16.71;100.00;98243.84;2607603;28;20126;-84
2022/06/06 02:15:51;;;;;;;8.48;5.00;;;;;;;16.70;100.00;98250.91;2607415;28;20045;-85
2022/06/06 02:17:07;;;;;;;9.20;5.07;;;;;;;16.66;100.00;98246.75;2607461;28;20037;-86
2022/06/06 02:18:23;;;;;;;6.63;4.68;;;;;;;16.62;100.00;98247.84;2607330;28;20456;-86
2022/06/06 02:19:39;;;;;;;6.57;5.03;;;;;;;16.63;100.00;98252.22;2606571;28;20041;-86
2022/06/06 02:20:55;;;;;;;9.82;4.90;;;;;;;16.65;100.00;98250.34;2607259;28;20411;-87
2022/06/06 02:22:10;;;;;;;6.82;4.53;;;;;;;16.67;100.00;98251.09;2607246;28;20041;-89
2022/06/06 02:23:26;;;;;;;7.28;4.90;;;;;;;16.67;100.00;98251.09;2607156;28;20084;-86
2022/06/06 02:24:41;;;;;;;7.97;5.18;;;;;;;16.68;100.00;98258.09;2607278;28;20132;-86
2022/06/06 02:25:57;;;;;;;6.40;4.75;;;;;;;16.70;100.00;98250.91;2607736;28;20060;-85
2022/06/06 02:27:13;;;;;;;6.40;4.93;;;;;;;16.70;100.00;98253.56;2606868;28;20053;-85
2022/06/06 02:28:28;;;;;;;8.65;5.35;;;;;;;16.69;100.00;98254.50;2607298;28;20076;-86
2022/06/06 02:29:44;;;;;;;6.82;5.13;;;;;;;16.72;100.00;98251.69;2607134;28;20506;-85
2022/06/06 02:31:00;;;;;;;9.57;4.97;;;;;;;16.70;100.00;98248.28;2607257;28;20053;-85
2022/06/06 02:32:15;;;;;;;8.95;5.07;;;;;;;16.69;100.00;98257.16;2606818;28;20049;-86
2022/06/06 02:33:32;;;;;;;8.05;5.45;;;;;;;16.66;100.00;98252.88;2607173;28;20543;-88
2022/06/06 02:34:47;;;;;;;8.05;5.22;;;;;;;16.65;100.00;98250.34;2607688;28;20052;-85
2022/06/06 02:36:04;;;;;;;6.70;5.13;;;;;;;16.66;100.00;98252.03;2607171;28;20466;-85
2022/06/06 02:37:19;;;;;;;8.00;5.82;;;;;;;16.66;100.00;98252.88;2607095;28;20821;-88
2022/06/06 02:38:35;;;;;;;7.85;5.78;;;;;;;16.71;100.00;98255.28;2607165;28;20127;-86
2022/06/06 02:39:50;;;;;;;9.32;5.63;;;;;;;16.72;100.00;98253.50;2607512;28;20049;-86
2022/06/06 02:41:09;;;;;;;7.07;5.50;;;;;;;16.72;100.00;98256.13;2607295;28;20135;-89
2022/06/06 02:42:24;;;;;;;10.55;5.75;;;;;;;16.77;100.00;98254.06;2606968;28;20636;-86
2022/06/06 02:43:43;;;;;;;7.88;5.63;;;;;;;16.77;100.00;98256.72;2606893;28;20049;-85
2022/06/06 02:44:58;;;;;;;8.55;5.70;;;;;;;16.78;100.00;98253.13;2607071;28;20102;-88
2022/06/06 02:46:14;;;;;;;7.15;4.95;;;;;;;16.76;100.00;98252.38;2606719;28;20057;-86
2022/06/06 02:47:30;;;;;;;6.97;5.38;;;;;;;16.72;100.00;98253.50;2606755;28;20049;-86
2022/06/06 02:48:46;;;;;;;6.82;5.05;;;;;;;16.72;100.00;98254.31;2607010;28;20060;-85
2022/06/06 02:50:01;;;;;;;6.65;5.50;;;;;;;16.72;100.00;98254.31;2606823;28;20454;-85
2022/06/06 02:51:17;;;;;;;7.10;4.75;;;;;;;16.72;100.00;98261.44;2606870;28;20709;-85
2022/06/06 02:52:33;;;;;;;6.22;4.88;;;;;;;16.74;100.00;98248.97;2607077;28;20045;-86
2022/06/06 02:53:50;;;;;;;7.32;5.30;;;;;;;16.73;100.00;98258.69;2606790;28;20040;-86
2022/06/06 02:55:08;;;;;;;6.32;4.70;;;;;;;16.75;100.00;98256.78;2606988;28;20566;-84
2022/06/06 02:56:24;;;;;;;7.22;4.85;;;;;;;16.73;100.00;98261.31;2606643;28;20060;-85
2022/06/06 02:57:42;;;;;;;7.15;4.88;;;;;;;16.73;100.00;98265.78;2606585;28;20049;-85
2022/06/06 02:59:01;;;;;;;12.32;5.50;;;;;;;16.76;100.00;98268.22;2606953;28;20057;-86
2022/06/06 03:00:21;;;;;;;7.70;5.03;;;;;;;16.77;100.00;98268.16;2606642;28;20492;-85
2022/06/06 03:01:37;;;;;;;6.97;5.28;;;;;;;16.77;100.00;98268.16;2606560;28;20371;-87
2022/06/06 03:02:53;;;;;;;6.93;4.70;;;;;;;16.79;100.00;98270.69;2607146;28;20055;-86
2022/06/06 03:04:09;;;;;;;5.47;4.35;;;;;;;16.81;100.00;98282.03;2606997;28;20550;-86
2022/06/06 03:05:56;;;;;;;7.85;5.00;;;;;;;16.80;100.00;98275.91;2606809;28;20045;-85
2022/06/06 03:07:32;;;;;;;8.88;4.88;;;;;;;16.81;100.00;98282.03;2606933;28;20068;-85
2022/06/06 03:09:00;;;;;;;7.95;5.18;;;;;;;16.84;100.00;98281.03;2606723;28;20071;-86
2022/06/06 03:10:24;;;;;;;6.00;4.72;;;;;;;16.83;100.00;98289.88;2606925;28;20566;-85
2022/06/06 03:12:13;;;;;;;8.45;5.15;;;;;;;16.85;100.00;98290.66;2606897;28;20057;-86
2022/06/06 03:13:57;;;;;;;6.35;4.93;;;;;;;16.84;100.00;98291.59;2606158;28;20056;-86
2022/06/06 03:20:46;;;;;;;7.28;4.82;;;;;;;16.82;100.00;98293.47;2606724;28;20075;-86
2022/06/06 03:21:38;;;;;;;7.45;5.20;;;;;;;16.77;100.00;98286.66;2606687;28;20095;-86
2022/06/06 03:23:08;;;;;;;7.38;5.30;;;;;;;16.80;100.00;98288.25;2606814;28;20049;-86
2022/06/06 03:24:35;;;;;;;6.93;5.22;;;;;;;16.81;100.00;98292.59;2607050;28;20061;-87
2022/06/06 03:25:59;;;;;;;8.43;5.63;;;;;;;16.82;100.00;98293.47;2606601;28;20057;-87
2022/06/06 03:27:34;;;;;;;6.88;4.70;;;;;;;16.83;100.00;98295.19;2606792;28;20060;-85
2022/06/06 03:29:03;;;;;;;11.80;5.63;;;;;;;16.82;100.00;98296.97;2606698;28;20179;-87
2022/06/06 03:30:37;;;;;;;7.72;5.00;;;;;;;16.82;100.00;98306.69;2605563;28;20095;-84
2022/06/06 03:32:34;;;;;;;6.97;4.90;;;;;;;16.87;100.00;98304.63;2606503;28;20435;-87
2022/06/06 03:34:33;;;;;;;8.05;5.25;;;;;;;16.93;100.00;98309.59;2606920;28;20484;-84
2022/06/06 03:36:02;;;;;;;7.78;5.00;;;;;;;16.96;100.00;98309.41;2590406;28;20115;-87
2022/06/06 03:37:34;;;;;;;9.02;5.38;;;;;;;17.01;100.00;98309.19;2589701;28;20056;-85
2022/06/06 03:39:12;;;;;;;7.80;5.38;;;;;;;17.00;100.00;98315.44;2590823;28;20041;-86
2022/06/06 03:40:45;;;;;;;10.05;5.47;;;;;;;17.05;100.00;98319.53;2589706;28;20054;-86
2022/06/06 03:42:37;;;;;;;9.15;5.10;;;;;;;17.11;100.00;98317.44;2606803;28;20110;-84
2022/06/06 03:44:15;;;;;;;6.22;4.40;;;;;;;17.14;100.00;98318.13;2606715;28;20056;-86
2022/06/06 03:45:54;;;;;;;9.73;4.93;;;;;;;17.14;100.00;98320.78;2606546;28;20049;-88
2022/06/06 03:47:42;;;;;;;7.47;4.90;;;;;;;17.08;100.00;98327.28;2606603;28;20515;-81
2022/06/06 03:49:14;;;;;;;10.02;4.78;;;;;;;17.16;100.00;98315.38;2606509;28;20144;-85
2022/06/06 03:50:55;;;;;;;5.78;4.85;;;;;;;17.21;100.00;98323.94;2606560;28;20110;-82
2022/06/06 03:53:09;;;;;;;6.20;4.63;;;;;;;17.22;100.00;98331.75;2606667;28;20056;-84
2022/06/06 03:54:49;;;;;;;6.00;4.47;;;;;;;17.14;100.00;98333.16;2592621;28;20118;-84
2022/06/06 03:56:32;;;;;;;7.38;4.55;;;;;;;17.23;100.00;98329.97;2606498;28;20060;-83
2022/06/06 03:57:48;;;;;;;7.03;4.80;;;;;;;17.18;100.00;98332.03;2606394;28;20558;-88
2022/06/06 03:59:07;;;;;;;7.90;5.00;;;;;;;17.22;100.00;98328.28;2606234;28;20057;-85
2022/06/06 04:00:23;;;;;;;7.97;5.22;;;;;;;17.30;100.00;98327.84;2606276;28;20088;-83
2022/06/06 04:01:41;;;;;;;5.47;4.80;;;;;;;17.28;100.00;98332.38;2606170;28;20516;-84
2022/06/06 04:02:58;;;;;;;7.35;4.80;;;;;;;17.19;100.00;98334.59;2603375;28;20087;-83
2022/06/06 04:04:15;;;;;;;5.90;4.93;;;;;;;17.27;100.00;98334.16;2605123;28;20049;-84
2022/06/06 04:05:35;;;;;;;6.80;4.50;;;;;;;17.34;100.00;98330.22;2604923;28;20064;-83
2022/06/06 04:06:57;;;;;;;5.45;4.40;;;;;;;17.30;100.00;98336.63;2604119;28;20049;-83
2022/06/06 04:08:13;;;;;;;8.05;4.65;;;;;;;17.34;100.00;98332.88;2605737;28;20143;-85
2022/06/06 04:09:31;;;;;;;6.13;4.85;;;;;;;17.41;100.00;98337.78;2604824;28;20049;-85
2022/06/06 04:11:25;;;;;;;6.10;4.65;;;;;;;17.42;100.00;98337.72;2604689;28;20244;-84
2022/06/06 04:13:05;;;;;;;5.75;4.30;;;;;;;17.43;100.00;98335.91;2605418;28;20037;-87
2022/06/06 04:14:27;;;;;;;6.78;5.13;;;;;;;17.41;100.00;98337.78;2605418;28;20045;-88
2022/06/06 04:15:51;;;;;;;;;;;;;;;17.40;100.00;98339.59;2606182;28;20072;-83
2022/06/06 04:17:33;;;;;;;7.75;4.72;;;;;;;17.40;100.00;98346.69;2604655;28;19932;-84
2022/06/06 04:19:19;;;;;;;6.90;4.45;;;;;;;17.28;100.00;98353.53;2604247;28;20475;-85
2022/06/06 04:21:02;;;;;;;5.93;4.85;;;;;;;17.30;100.00;98356.94;2605394;28;20045;-84
2022/06/06 04:22:33;;;;;;;6.60;4.75;;;;;;;17.21;100.00;98348.56;2606108;28;20064;-85
2022/06/06 04:24:30;;;;;;;5.65;4.05;;;;;;;17.15;100.00;98356.00;2604991;28;20047;-83
2022/06/06 04:25:53;;;;;;;5.47;4.25;;;;;;;17.12;100.00;98356.19;2605497;28;20049;-83
2022/06/06 04:27:31;;;;;;;6.53;4.10;;;;;;;17.15;100.00;98353.38;2604736;28;20467;-86
2022/06/06 04:29:14;;;;;;;6.03;3.85;;;;;;;17.13;100.00;98355.25;2605135;28;20134;-87
2022/06/06 04:30:35;;;;;;;7.30;4.20;;;;;;;17.04;100.00;98354.84;2605262;28;20160;-83
2022/06/06 04:32:21;;;;;;;4.32;3.70;;;;;;;17.04;100.00;98353.97;2605811;28;20636;-84
2022/06/06 04:33:46;;;;;;;5.28;3.83;;;;;;;17.12;100.00;98359.69;2605706;28;20045;-84
2022/06/06 04:35:47;;;;;;;4.18;3.78;;;;;;;17.12;100.00;98357.06;2606178;28;20049;-83
2022/06/06 04:37:14;;;;;;;4.10;2.90;;;;;;;17.06;100.00;98362.69;2606124;28;20057;-84
2022/06/06 04:38:38;;;;;;;5.90;3.70;;;;;;;16.97;100.00;98364.00;2606114;28;20198;-84
2022/06/06 04:39:57;;;;;;;2.60;2.40;;;;;;;16.99;100.00;98359.53;2605874;28;20131;-87
2022/06/06 04:41:30;;;;;;;3.17;2.72;;;;;;;16.86;100.00;98358.47;2606178;28;20060;-89
2022/06/06 04:42:59;;;;;;;5.05;3.13;;;;;;;16.85;100.00;98351.47;2605417;28;20060;-83
2022/06/06 04:44:52;;;;;;;4.75;3.00;;;;;;;16.88;100.00;98353.94;2606217;28;20053;-84
2022/06/06 04:46:17;;;;;;;3.60;2.75;;;;;;;16.88;100.00;98356.56;2606241;28;20144;-84
2022/06/06 04:47:39;;;;;;;4.00;3.10;;;;;;;16.79;100.00;98357.94;2606089;28;20059;-83
2022/06/06 04:48:56;;;;;;;3.00;2.67;;;;;;;16.83;100.00;98362.13;2606288;28;20056;-84
2022/06/06 04:50:16;;;;;;;4.53;3.05;;;;;;;16.76;100.00;98356.34;2606059;28;20602;-84
2022/06/06 04:51:33;;;;;;;8.07;3.25;;;;;;;16.74;100.00;98360.84;2606211;28;20551;-88
2022/06/06 04:52:53;;;;;;;3.42;3.13;;;;;;;16.72;100.00;98356.59;2606158;28;20143;-84
2022/06/06 04:54:14;;;;;;;5.53;3.13;;;;;;;16.78;100.00;98357.09;2606012;28;20965;-84
2022/06/06 04:55:32;;;;;;;3.47;2.95;;;;;;;16.67;100.00;98356.84;2606198;28;20049;-84
2022/06/06 04:56:49;;;;;;;2.70;2.50;;;;;;;16.59;100.00;98353.75;2606077;28;20073;-84
2022/06/06 04:58:06;;;;;;;3.92;2.97;;;;;;;16.50;100.00;98358.59;2606145;28;20419;-85
2022/06/06 04:59:24;;;;;;;3.55;2.67;;;;;;;16.47;100.00;98348.19;2606084;28;20045;-85
2022/06/06 05:00:40;;;;;;;7.00;2.80;;;;;;;16.43;100.00;98356.38;2605988;28;20055;-86
2022/06/06 05:01:58;;;;;;;4.75;3.15;;;;;;;16.40;100.00;98359.16;2606301;28;20475;-85
2022/06/06 05:03:14;;;;;;;3.17;2.88;;;;;;;16.46;100.00;98362.31;2606077;28;20052;-85
2022/06/06 05:04:30;;;;;;;4.22;2.90;;;;;;;16.42;100.00;98365.25;2606086;28;20045;-84
2022/06/06 05:06:14;;;;;;;4.55;3.10;;;;;;;16.46;100.00;98362.31;2606060;28;20893;-86
2022/06/06 05:07:32;;;;;;;4.18;3.25;;;;;;;16.46;100.00;98358.84;2606325;28;20138;-84
2022/06/06 05:09:13;;;;;;;5.85;3.20;;;;;;;16.44;100.00;98363.38;2606165;28;20484;-84
2022/06/06 05:11:00;;;;;;;3.08;2.67;;;;;;;16.36;100.00;98363.78;2605870;28;20049;-86
2022/06/06 05:12:41;;;;;;;4.85;3.00;;;;;;;16.32;100.00;98370.13;2605948;28;20049;-84
2022/06/06 05:14:10;;;;;;;3.90;2.80;;;;;;;16.29;100.00;98370.31;2606000;28;20053;-84
2022/06/06 05:15:50;;;;;;;3.50;3.20;;;;;;;16.33;100.00;98377.13;2605875;28;20075;-87
2022/06/06 05:17:24;;;;;;;4.28;2.92;;;;;;;16.35;100.00;98372.63;2605758;28;20057;-84
2022/06/06 05:18:47;;;;;;;10.25;3.25;;;;;;;16.31;100.00;98377.22;2605879;28;20484;-84
2022/06/06 05:20:24;;;;;;;3.30;3.00;;;;;;;16.29;100.00;98381.75;2606044;28;20114;-86
2022/06/06 05:21:55;;;;;;;3.22;2.92;;;;;;;16.24;100.00;98374.06;2606143;28;20045;-85
2022/06/06 05:23:19;;;;;;;5.80;3.20;;;;;;;16.23;100.00;98385.56;2606064;28;20088;-85
2022/06/06 05:24:48;;;;;;;3.53;2.70;;;;;;;16.36;100.00;98380.47;2605927;28;20080;-88
2022/06/06 05:26:22;;;;;;;3.80;2.97;;;;;;;16.49;100.00;98380.69;2606112;28;20088;-85
2022/06/06 05:28:07;;;;;;;3.47;2.47;;;;;;;16.57;100.00;98387.34;2605708;28;20126;-84
2022/06/06 05:29:31;;;;;;;2.53;2.30;;;;;;;16.56;100.00;98385.63;2605997;28;20049;-84
2022/06/06 05:31:04;;;;;;;4.63;2.90;;;;;;;16.60;100.00;98390.69;2606042;28;20045;-84
2022/06/06 05:32:41;;;;;;;4.97;2.90;;;;;;;16.69;100.00;98389.31;2605814;28;20045;-84
2022/06/06 05:34:15;;;;;;;2.88;2.60;;;;;;;16.75;100.00;98391.63;2606054;28;20466;-84
2022/06/06 05:35:45;;;;;;;3.30;2.75;;;;;;;16.75;100.00;98388.13;2605955;28;20044;-85
2022/06/06 05:37:20;;;;;;;3.17;2.38;;;;;;;16.85;100.00;98401.69;2605785;28;20048;-84
2022/06/06 05:38:54;;;;;;;2.92;2.72;;;;;;;16.87;100.00;98394.53;2605816;28;20077;-85
2022/06/06 05:40:24;;;;;;;2.58;2.38;;;;;;;16.99;100.00;98396.53;2605627;28;20041;-84
2022/06/06 05:42:05;;;;;;;2.88;2.63;;;;;;;17.05;100.00;98401.50;2606145;28;20450;-85
2022/06/06 05:43:37;;;;;;;5.65;2.55;;;;;;;17.05;100.00;98401.50;2605715;28;20052;-84
2022/06/06 05:45:12;;;;;;;2.80;2.60;;;;;;;17.08;100.00;98401.34;2606148;28;20606;-84
2022/06/06 05:46:37;;;;;;;2.83;2.42;;;;;;;17.16;100.00;98400.91;2605782;28;20435;-85
2022/06/06 05:47:56;;;;;;;3.60;2.42;;;;;;;17.23;100.00;98409.34;2605416;28;20055;-85
2022/06/06 05:49:27;;;;;;;2.50;2.10;;;;;;;17.27;100.00;98402.94;2605490;28;20227;-84
2022/06/06 05:51:06;;;;;;;2.08;1.70;;;;;;;17.35;100.00;98400.72;2605733;28;20056;-87
2022/06/06 05:52:28;;;;;;;3.25;1.92;;;;;;;17.33;100.00;98410.56;2605844;28;20391;-88
2022/06/06 05:54:04;;;;;;;2.42;2.00;;;;;;;17.29;100.00;98413.44;2605460;28;20056;-85
2022/06/06 05:55:37;;;;;;;1.70;1.60;;;;;;;17.29;100.00;98408.16;2607199;28;20051;-84
2022/06/06 05:57:22;;;;;;;2.10;1.90;;;;;;;17.41;100.00;98410.13;2607560;28;20426;-84
2022/06/06 05:59:08;;;;;;;2.10;1.60;;;;;;;17.31;100.00;98414.22;2607560;28;20487;-85
2022/06/06 06:00:50;;;;;;;2.30;1.38;;;;;;;17.29;100.00;98413.44;2604220;28;20065;-85
2022/06/06 06:02:27;;;;;;;1.60;1.50;;;;;;;17.30;100.00;98421.28;2607718;28;20080;-85
2022/06/06 06:04:08;;;;;;;2.03;1.80;;;;;;;17.40;100.00;98420.78;2607789;28;20076;-84
2022/06/06 06:05:35;;;;;;;3.17;2.10;;;;;;;17.46;100.00;98420.41;2607634;28;20126;-85
2022/06/06 06:07:16;;;;;;;2.00;1.80;;;;;;;17.42;100.00;98414.47;2607582;28;20399;-84
2022/06/06 06:08:31;;;;;;;3.55;2.13;;;;;;;17.55;100.00;98422.56;2606684;28;20060;-84
2022/06/06 06:10:15;;;;;;;2.05;1.60;;;;;;;17.34;100.00;98422.84;2606013;28;20471;-85
2022/06/06 06:11:58;;;;;;;2.75;1.42;;;;;;;17.42;100.00;98424.19;2607249;28;20053;-85
2022/06/06 06:13:33;;;;;;;5.18;1.75;;;;;;;17.45;100.00;98418.72;2607457;28;20059;-86
2022/06/06 06:15:08;;;;;;;2.10;1.40;;;;;;;17.49;100.00;98422.91;2607385;28;20069;-90
2022/06/06 06:16:29;;;;;;;2.65;1.70;;;;;;;17.60;100.00;98427.59;2607396;28;20736;-85
2022/06/06 06:17:49;;;;;;;1.85;1.75;;;;;;;17.70;100.00;98426.13;2607363;28;20559;-85
2022/06/06 06:19:09;;;;;;;2.17;1.67;;;;;;;17.82;100.00;98423.72;2607335;28;20048;-86
2022/06/06 06:20:33;;;;;;;3.08;1.63;;;;;;;17.90;100.00;98429.41;2607444;28;20570;-89
2022/06/06 06:21:57;;;;;;;4.40;1.90;;;;;;;17.97;100.00;98433.41;2607090;28;20102;-87
2022/06/06 06:23:20;;;;;;;2.83;1.63;;;;;;;17.93;100.00;98437.16;2607275;28;20057;-86
2022/06/06 06:24:39;;;;;;;1.70;1.58;;;;;;;18.01;100.00;98437.56;2607378;28;20123;-86
2022/06/06 06:25:57;;;;;;;1.98;1.52;;;;;;;17.92;99.90;98443.41;2607209;28;20053;-90
2022/06/06 06:27:14;;;;;;;1.83;1.60;;;;;;;18.07;100.00;98436.41;2607083;28;20068;-86
2022/06/06 06:28:33;;;;;;;3.90;1.70;;;;;;;18.13;100.00;98441.31;2607416;28;20049;-85
2022/06/06 06:29:48;;;;;;;1.50;1.40;;;;;;;18.13;98.91;98445.78;2607413;28;20480;-87
2022/06/06 06:31:27;;;;;;;2.83;1.80;;;;;;;18.18;100.00;98436.63;2607140;28;20045;-86
2022/06/06 06:33:09;;;;;;;2.08;1.75;;;;;;;18.18;100.00;98438.41;2607148;28;20045;-91
2022/06/06 06:35:01;;;;;;;1.90;1.70;;;;;;;18.15;98.36;98442.06;2595561;28;20123;-86
2022/06/06 06:36:31;;;;;;;1.58;1.48;;;;;;;18.14;97.53;98445.66;2606945;28;20099;-86
2022/06/06 06:37:56;;;;;;;2.25;1.45;;;;;;;18.08;99.68;98446.03;2607287;28;20068;-86
2022/06/06 06:39:53;;;;;;;3.60;1.80;;;;;;;18.07;98.98;98452.28;2606991;28;20143;-87
2022/06/06 06:41:25;;;;;;;3.85;1.50;;;;;;;18.07;96.90;98449.63;2605741;28;20057;-87
2022/06/06 06:43:02;;;;;;;3.20;1.70;;;;;;;17.89;97.37;98448.88;2607074;28;20079;-87
2022/06/06 06:44:32;;;;;;;1.63;1.50;;;;;;;17.80;98.44;98452.91;2607047;28;20049;-87
2022/06/06 06:45:56;;;;;;;1.30;1.20;;;;;;;17.89;98.35;98455.03;2607240;28;20115;-87
2022/06/06 06:47:29;;;;;;;1.70;1.60;;;;;;;17.82;98.56;98455.50;2601196;28;20488;-87
2022/06/06 06:48:46;;;;;;;;;;;;;;;17.96;99.49;98454.69;2603136;28;20088;-87
2022/06/06 06:50:11;;;;;;;3.58;2.00;;;;;;;17.93;99.54;98445.09;2606547;28;20885;-88